createdAt,value
2023-04-09T00:00:16.862Z,112774.28
2023-04-09T00:01:19.426Z,113034.66
2023-04-09T00:02:22.325Z,111342.52
2023-04-09T00:03:26.688Z,107570.28
2023-04-09T00:04:30.496Z,113164.86
2023-04-09T00:05:33.296Z,114206.55
2023-04-09T00:06:36.252Z,110691.89
2023-04-09T00:07:38.927Z,113164.86
2023-04-09T00:08:41.806Z,113034.66
2023-04-09T00:09:44.475Z,111212.39
2023-04-09T00:10:47.663Z,113295.05
2023-04-09T00:11:50.341Z,109521.00
2023-04-09T00:12:53.002Z,110691.89
2023-04-09T00:13:55.573Z,111863.11
2023-04-09T00:14:58.549Z,110301.56
2023-04-09T00:16:01.227Z,113946.10
2023-04-09T00:17:03.876Z,109651.09
2023-04-09T00:18:06.465Z,112253.59
2023-04-09T00:19:09.335Z,112253.59
2023-04-09T00:20:12.097Z,111212.39
2023-04-09T00:21:14.777Z,112253.59
2023-04-09T00:22:17.438Z,114206.55
2023-04-09T00:23:20.108Z,114727.50
2023-04-09T00:24:22.785Z,113685.67
2023-04-09T00:25:25.444Z,111342.52
2023-04-09T00:26:28.036Z,108350.46
2023-04-09T00:27:30.746Z,110691.89
2023-04-09T00:28:33.580Z,108870.66
2023-04-09T00:29:36.335Z,110822.01
2023-04-09T00:30:40.128Z,112383.76
2023-04-09T00:31:42.826Z,111472.66
2023-04-09T00:32:45.523Z,109390.93
2023-04-09T00:33:48.545Z,109000.72
2023-04-09T00:34:51.317Z,109911.27
2023-04-09T00:35:54.231Z,105880.41
2023-04-09T00:36:57.071Z,99646.98
2023-04-09T00:38:00.058Z,96922.86
2023-04-09T00:39:03.038Z,111212.39
2023-04-09T00:40:06.015Z,110561.77
2023-04-09T00:41:08.977Z,103152.11
2023-04-09T00:42:11.856Z,106790.25
2023-04-09T00:43:14.739Z,107570.28
2023-04-09T00:44:17.295Z,111342.52
2023-04-09T00:45:20.372Z,109000.72
2023-04-09T00:46:23.249Z,108090.38
2023-04-09T00:48:41.928Z,111342.52
2023-04-09T00:49:44.685Z,109911.27
2023-04-09T00:50:47.353Z,106140.34
2023-04-09T00:51:50.411Z,105750.45
2023-04-09T00:52:53.203Z,105880.41
2023-04-09T00:53:57.776Z,109000.72
2023-04-09T00:55:00.379Z,110561.77
2023-04-09T00:56:02.961Z,109130.78
2023-04-09T00:57:06.024Z,109521.00
2023-04-09T00:58:08.801Z,109390.93
2023-04-09T00:59:11.670Z,108090.38
2023-04-09T01:00:14.253Z,108090.38
2023-04-09T01:01:17.354Z,104970.77
2023-04-09T01:02:20.263Z,109260.86
2023-04-09T01:03:23.264Z,104061.34
2023-04-09T01:04:26.143Z,107440.27
2023-04-09T01:05:28.911Z,101204.44
2023-04-09T01:06:31.595Z,104970.77
2023-04-09T01:07:34.149Z,107050.25
2023-04-09T01:08:36.925Z,107700.30
2023-04-09T01:09:39.596Z,104451.08
2023-04-09T01:10:42.658Z,103022.23
2023-04-09T01:11:45.249Z,105100.71
2023-04-09T01:12:48.228Z,103411.87
2023-04-09T01:13:50.900Z,102892.36
2023-04-09T01:14:53.552Z,102762.50
2023-04-09T01:15:56.342Z,104321.16
2023-04-09T01:16:58.941Z,105100.71
2023-04-09T01:18:01.899Z,101204.44
2023-04-09T01:19:04.441Z,98349.55
2023-04-09T01:20:07.216Z,103281.98
2023-04-09T01:21:09.785Z,100815.02
2023-04-09T01:22:12.461Z,101464.08
2023-04-09T01:23:15.639Z,98998.21
2023-04-09T01:24:18.398Z,103411.87
2023-04-09T01:25:21.511Z,103281.98
2023-04-09T01:26:24.466Z,103541.75
2023-04-09T01:27:27.036Z,98738.73
2023-04-09T01:28:29.998Z,97311.91
2023-04-09T01:29:32.686Z,96404.19
2023-04-09T01:30:35.797Z,89597.73
2023-04-09T01:31:38.422Z,99257.70
2023-04-09T01:32:41.327Z,103152.11
2023-04-09T01:33:44.271Z,100685.22
2023-04-09T01:34:47.150Z,101723.73
2023-04-09T01:35:49.971Z,98090.11
2023-04-09T01:36:52.802Z,95755.94
2023-04-09T01:37:55.591Z,91968.81
2023-04-09T01:38:58.652Z,88819.13
2023-04-09T01:40:01.438Z,96404.19
2023-04-09T01:41:04.217Z,95885.58
2023-04-09T01:42:07.061Z,95755.94
2023-04-09T01:43:10.053Z,96922.86
2023-04-09T01:44:13.041Z,97311.91
2023-04-09T01:45:15.589Z,98998.21
2023-04-09T01:46:18.384Z,99127.95
2023-04-09T01:47:21.906Z,102632.64
2023-04-09T01:48:24.523Z,97700.99
2023-04-09T01:49:27.092Z,83312.59
2023-04-09T01:50:29.663Z,68409.13
2023-04-09T01:51:32.550Z,61165.96
2023-04-09T01:52:35.414Z,59852.81
2023-04-09T01:53:38.284Z,80647.91
2023-04-09T01:54:41.278Z,77975.93
2023-04-09T01:55:43.832Z,61838.77
2023-04-09T01:56:46.500Z,58534.07
2023-04-09T01:57:49.185Z,60560.54
2023-04-09T01:58:52.284Z,78507.36
2023-04-09T01:59:55.446Z,62609.12
2023-04-09T02:00:58.147Z,61932.17
2023-04-09T02:02:00.743Z,64172.39
2023-04-09T02:03:03.733Z,68239.13
2023-04-09T02:04:07.202Z,73094.50
2023-04-09T02:05:10.485Z,66828.13
2023-04-09T02:06:13.304Z,62681.45
2023-04-09T02:07:16.151Z,62623.19
2023-04-09T02:08:19.129Z,59492.48
2023-04-09T02:09:22.622Z,59676.15
2023-04-09T02:10:25.712Z,60512.35
2023-04-09T02:11:28.597Z,67122.75
2023-04-09T02:12:31.546Z,64906.00
2023-04-09T02:13:34.332Z,65931.28
2023-04-09T02:14:37.004Z,65435.70
2023-04-09T02:15:40.062Z,72752.09
2023-04-09T02:16:42.662Z,67647.72
2023-04-09T02:17:45.392Z,58838.13
2023-04-09T02:18:53.807Z,59969.25
2023-04-09T02:19:56.602Z,57568.88
2023-04-09T02:20:59.471Z,57626.07
2023-04-09T02:22:02.046Z,57333.14
2023-04-09T02:23:04.916Z,57122.48
2023-04-09T02:24:07.810Z,57575.91
2023-04-09T02:25:10.394Z,58059.48
2023-04-09T02:26:13.465Z,58494.94
2023-04-09T02:27:16.112Z,58177.87
2023-04-09T02:28:18.672Z,57537.78
2023-04-09T02:29:21.553Z,60028.48
2023-04-09T02:30:24.420Z,57842.77
2023-04-09T02:31:27.258Z,54996.52
2023-04-09T02:32:29.886Z,56362.22
2023-04-09T02:33:32.749Z,57720.37
2023-04-09T02:34:35.626Z,56626.99
2023-04-09T02:35:38.447Z,56169.67
2023-04-09T02:36:41.073Z,56901.81
2023-04-09T02:37:43.622Z,57158.60
2023-04-09T02:38:46.302Z,56585.87
2023-04-09T02:39:48.968Z,56239.87
2023-04-09T02:40:51.641Z,58154.79
2023-04-09T02:41:54.203Z,57954.13
2023-04-09T02:42:56.881Z,56565.81
2023-04-09T02:43:59.551Z,56702.21
2023-04-09T02:45:04.709Z,56795.50
2023-04-09T02:46:07.273Z,56574.84
2023-04-09T02:47:10.118Z,57340.16
2023-04-09T02:48:12.789Z,57242.86
2023-04-09T02:49:15.455Z,56534.72
2023-04-09T02:50:18.130Z,61615.83
2023-04-09T02:51:20.693Z,57625.06
2023-04-09T02:52:23.465Z,63533.34
2023-04-09T02:53:26.164Z,65574.42
2023-04-09T02:54:28.709Z,74421.09
2023-04-09T02:55:31.383Z,61869.90
2023-04-09T02:56:33.944Z,58692.62
2023-04-09T02:57:36.616Z,59797.61
2023-04-09T02:58:39.174Z,56689.18
2023-04-09T02:59:41.847Z,55855.79
2023-04-09T03:00:44.422Z,56871.72
2023-04-09T03:01:47.169Z,56079.42
2023-04-09T03:02:50.095Z,57355.21
2023-04-09T03:03:52.835Z,57327.12
2023-04-09T03:04:55.506Z,57606.00
2023-04-09T03:05:58.073Z,58039.41
2023-04-09T03:07:00.752Z,58063.49
2023-04-09T03:08:03.524Z,58919.41
2023-04-09T03:09:06.191Z,59185.36
2023-04-09T03:10:08.771Z,60742.25
2023-04-09T03:11:11.430Z,60341.68
2023-04-09T03:12:13.988Z,58656.50
2023-04-09T03:13:16.661Z,58421.69
2023-04-09T03:14:19.328Z,58239.07
2023-04-09T03:15:21.900Z,58669.54
2023-04-09T03:16:24.799Z,61021.38
2023-04-09T03:17:27.674Z,58132.72
2023-04-09T03:18:30.730Z,57963.16
2023-04-09T03:19:33.891Z,58385.57
2023-04-09T03:20:36.974Z,58118.67
2023-04-09T03:21:39.956Z,57674.22
2023-04-09T03:22:43.027Z,58456.81
2023-04-09T03:23:46.321Z,57887.91
2023-04-09T03:24:49.390Z,57461.54
2023-04-09T03:25:52.583Z,58133.72
2023-04-09T03:26:55.961Z,57816.68
2023-04-09T03:27:59.346Z,58270.18
2023-04-09T03:29:02.737Z,58379.55
2023-04-09T03:30:05.814Z,58846.16
2023-04-09T03:31:08.915Z,58222.02
2023-04-09T03:32:11.880Z,58285.23
2023-04-09T03:33:14.958Z,58649.47
2023-04-09T03:34:18.435Z,58104.62
2023-04-09T03:35:21.845Z,58078.54
2023-04-09T03:36:24.708Z,57550.82
2023-04-09T03:37:27.884Z,59337.91
2023-04-09T03:38:31.185Z,59024.79
2023-04-09T03:39:34.154Z,59599.87
2023-04-09T03:40:37.234Z,58952.53
2023-04-09T03:41:39.999Z,58007.30
2023-04-09T03:42:43.182Z,58995.68
2023-04-09T03:43:46.155Z,59392.11
2023-04-09T03:44:49.256Z,58868.23
2023-04-09T03:45:52.011Z,58339.41
2023-04-09T03:46:55.023Z,58883.29
2023-04-09T03:47:58.184Z,58635.42
2023-04-09T03:49:01.242Z,58264.16
2023-04-09T03:50:04.238Z,58993.68
2023-04-09T03:51:07.104Z,58882.28
2023-04-09T03:52:09.974Z,58522.03
2023-04-09T03:53:13.058Z,58707.67
2023-04-09T03:54:16.866Z,58066.50
2023-04-09T03:55:20.233Z,58218.00
2023-04-09T03:56:23.525Z,58504.98
2023-04-09T03:57:26.803Z,58795.98
2023-04-09T03:58:29.875Z,58992.67
2023-04-09T03:59:32.956Z,59604.89
2023-04-09T04:00:35.933Z,59735.37
2023-04-09T04:01:39.288Z,60965.15
2023-04-09T04:02:42.785Z,61622.86
2023-04-09T04:03:46.100Z,61760.44
2023-04-09T04:04:49.303Z,61363.78
2023-04-09T04:05:52.148Z,61575.66
2023-04-09T04:06:54.923Z,61430.05
2023-04-09T04:07:57.897Z,61331.64
2023-04-09T04:09:01.087Z,61315.58
2023-04-09T04:10:04.056Z,60790.45
2023-04-09T04:11:07.240Z,62074.79
2023-04-09T04:12:10.218Z,62107.93
2023-04-09T04:13:16.209Z,61927.15
2023-04-09T04:14:19.755Z,62456.45
2023-04-09T04:15:22.733Z,60739.24
2023-04-09T04:16:26.051Z,62157.14
2023-04-09T04:17:28.920Z,61683.11
2023-04-09T04:18:32.211Z,62996.87
2023-04-09T04:19:35.354Z,62341.95
2023-04-09T04:20:38.434Z,61091.66
2023-04-09T04:21:42.648Z,61132.83
2023-04-09T04:22:45.721Z,60245.31
2023-04-09T04:23:48.699Z,59250.59
2023-04-09T04:24:51.674Z,63237.97
2023-04-09T04:28:20.163Z,60661.94
2023-04-09T04:29:23.168Z,60684.02
2023-04-09T04:30:26.325Z,59823.70
2023-04-09T04:31:29.442Z,59664.11
2023-04-09T04:32:33.797Z,60457.13
2023-04-09T04:33:36.997Z,60347.70
2023-04-09T04:34:40.189Z,59832.74
2023-04-09T04:35:43.528Z,59503.52
2023-04-09T04:36:46.642Z,59419.21
2023-04-09T04:37:49.520Z,59678.16
2023-04-09T04:38:52.957Z,60263.38
2023-04-09T04:39:55.981Z,60530.42
2023-04-09T04:40:58.961Z,60688.04
2023-04-09T04:42:02.344Z,60822.57
2023-04-09T04:43:05.640Z,61121.79
2023-04-09T04:44:08.606Z,60626.80
2023-04-09T04:45:11.484Z,61432.06
2023-04-09T04:46:14.761Z,61522.44
2023-04-09T04:47:17.956Z,62062.73
2023-04-09T04:48:21.132Z,61056.52
2023-04-09T04:49:24.419Z,61383.86
2023-04-09T04:50:27.493Z,61168.98
2023-04-09T04:51:30.574Z,61079.61
2023-04-09T04:52:33.858Z,60610.73
2023-04-09T04:53:36.837Z,60780.41
2023-04-09T04:54:39.918Z,60887.84
2023-04-09T04:55:42.903Z,60468.18
2023-04-09T04:56:47.005Z,60892.86
2023-04-09T04:57:49.874Z,61119.78
2023-04-09T04:58:53.119Z,60738.24
2023-04-09T04:59:56.450Z,60604.71
2023-04-09T05:00:59.842Z,60466.17
2023-04-09T05:02:02.998Z,60387.86
2023-04-09T05:03:06.190Z,59856.83
2023-04-09T05:04:09.368Z,59892.96
2023-04-09T05:05:12.670Z,60400.91
2023-04-09T05:06:15.742Z,60441.07
2023-04-09T05:07:18.813Z,60061.61
2023-04-09T05:08:21.797Z,60474.20
2023-04-09T05:09:24.665Z,60081.68
2023-04-09T05:10:27.748Z,60484.24
2023-04-09T05:11:31.027Z,60146.93
2023-04-09T05:12:42.234Z,53587.19
2023-04-09T05:13:45.096Z,60380.83
2023-04-09T05:14:47.984Z,60301.53
2023-04-09T05:15:50.542Z,60477.21
2023-04-09T05:16:53.318Z,60052.57
2023-04-09T05:17:55.912Z,61082.62
2023-04-09T05:18:58.549Z,60799.48
2023-04-09T05:20:01.247Z,60568.57
2023-04-09T05:21:04.094Z,60568.57
2023-04-09T05:22:06.981Z,60057.59
2023-04-09T05:23:09.741Z,60171.02
2023-04-09T05:24:12.586Z,60117.82
2023-04-09T05:25:15.573Z,59857.83
2023-04-09T05:26:18.351Z,59651.06
2023-04-09T05:27:21.416Z,60333.65
2023-04-09T05:28:24.598Z,60719.16
2023-04-09T05:29:27.684Z,60267.39
2023-04-09T05:30:30.791Z,60189.09
2023-04-09T05:31:33.944Z,60104.77
2023-04-09T05:32:36.632Z,60452.11
2023-04-09T05:33:39.487Z,60805.51
2023-04-09T05:34:43.688Z,60349.71
2023-04-09T05:35:46.791Z,61047.48
2023-04-09T05:36:49.744Z,60355.73
2023-04-09T05:37:53.032Z,60707.12
2023-04-09T05:38:56.383Z,61492.31
2023-04-09T05:40:05.744Z,60693.06
2023-04-09T05:41:08.412Z,60765.35
2023-04-09T05:42:11.295Z,60486.25
2023-04-09T05:43:14.067Z,60556.52
2023-04-09T05:44:17.266Z,59960.22
2023-04-09T05:45:20.640Z,60693.06
2023-04-09T05:46:24.115Z,60936.03
2023-04-09T05:47:27.100Z,60278.43
2023-04-09T05:48:29.874Z,60452.11
2023-04-09T05:49:32.849Z,60016.43
2023-04-09T05:50:47.140Z,60114.80
2023-04-09T05:51:40.646Z,59934.12
2023-04-09T05:52:43.732Z,59859.84
2023-04-09T05:53:46.907Z,60101.76
2023-04-09T05:54:49.992Z,59769.50
2023-04-09T05:55:52.970Z,60231.25
2023-04-09T05:56:55.843Z,60403.92
2023-04-09T05:57:59.027Z,60217.20
2023-04-09T05:59:02.099Z,60058.59
2023-04-09T06:00:05.191Z,60061.61
2023-04-09T06:01:08.060Z,59582.81
2023-04-09T06:02:11.030Z,60524.39
2023-04-09T06:03:14.006Z,60531.42
2023-04-09T06:04:16.961Z,60566.56
2023-04-09T06:05:19.961Z,60175.04
2023-04-09T06:06:22.835Z,60329.63
2023-04-09T06:07:25.812Z,60345.70
2023-04-09T06:08:28.901Z,60094.73
2023-04-09T06:09:31.877Z,60321.60
2023-04-09T06:10:34.743Z,59902.00
2023-04-09T06:11:37.620Z,59728.35
2023-04-09T06:12:40.493Z,61074.59
2023-04-09T06:13:43.169Z,60111.79
2023-04-09T06:14:45.939Z,60098.75
2023-04-09T06:15:48.935Z,60730.21
2023-04-09T06:16:51.896Z,60528.41
2023-04-09T06:17:56.533Z,60300.52
2023-04-09T06:18:59.491Z,60401.91
2023-04-09T06:20:02.360Z,60395.89
2023-04-09T06:21:05.338Z,60307.55
2023-04-09T06:22:08.419Z,60353.73
2023-04-09T06:23:11.602Z,60324.61
2023-04-09T06:24:14.270Z,60156.97
2023-04-09T06:25:17.450Z,60277.43
2023-04-09T06:26:20.628Z,60220.21
2023-04-09T06:27:23.754Z,60403.92
2023-04-09T06:28:26.701Z,60327.63
2023-04-09T06:29:29.472Z,60250.33
2023-04-09T06:30:32.238Z,60526.40
2023-04-09T06:31:35.206Z,60540.46
2023-04-09T06:32:51.164Z,60949.09
2023-04-09T06:33:42.796Z,60430.02
2023-04-09T06:34:45.469Z,60526.40
2023-04-09T06:35:48.548Z,60417.98
2023-04-09T06:36:51.643Z,60682.02
2023-04-09T06:37:55.216Z,60978.20
2023-04-09T06:38:57.991Z,61449.13
2023-04-09T06:40:01.588Z,62141.07
2023-04-09T06:41:04.661Z,62416.27
2023-04-09T06:42:07.694Z,62858.24
2023-04-09T06:43:10.719Z,62941.62
2023-04-09T06:44:13.385Z,63537.36
2023-04-09T06:45:16.287Z,63944.29
2023-04-09T06:46:19.363Z,64552.24
2023-04-09T06:47:22.219Z,65958.43
2023-04-09T06:48:25.091Z,74002.01
2023-04-09T06:49:27.758Z,69479.59
2023-04-09T06:50:30.943Z,70289.66
2023-04-09T06:51:33.814Z,74307.25
2023-04-09T06:52:36.586Z,74715.27
2023-04-09T06:53:39.423Z,77444.56
2023-04-09T06:54:42.234Z,77321.56
2023-04-09T06:55:45.108Z,75128.38
2023-04-09T06:56:47.786Z,75261.38
2023-04-09T06:57:50.552Z,77876.10
2023-04-09T06:58:53.534Z,76765.09
2023-04-09T06:59:56.408Z,75824.70
2023-04-09T07:00:59.174Z,75273.48
2023-04-09T07:02:01.883Z,75819.66
2023-04-09T07:03:04.806Z,73657.52
2023-04-09T07:04:07.937Z,73649.45
2023-04-09T07:05:10.681Z,75947.66
2023-04-09T07:06:13.551Z,78005.17
2023-04-09T07:07:16.233Z,74745.50
2023-04-09T07:08:19.092Z,75829.74
2023-04-09T07:09:28.508Z,75958.75
2023-04-09T07:10:31.193Z,76496.96
2023-04-09T07:11:34.072Z,80599.48
2023-04-09T07:12:36.852Z,82206.13
2023-04-09T07:13:39.741Z,84749.63
2023-04-09T07:14:42.588Z,84092.14
2023-04-09T07:15:45.541Z,84398.15
2023-04-09T07:16:48.443Z,88758.47
2023-04-09T07:17:51.555Z,84945.58
2023-04-09T07:18:54.496Z,87647.48
2023-04-09T07:19:57.267Z,89190.21
2023-04-09T07:21:00.363Z,90719.38
2023-04-09T07:22:03.330Z,89978.99
2023-04-09T07:23:06.402Z,88720.05
2023-04-09T07:24:09.179Z,87205.80
2023-04-09T07:25:11.950Z,85781.02
2023-04-09T07:26:15.128Z,83763.95
2023-04-09T07:27:18.213Z,85615.33
2023-04-09T07:28:21.188Z,86474.14
2023-04-09T07:29:24.058Z,87405.91
2023-04-09T07:30:27.037Z,85429.45
2023-04-09T07:31:29.713Z,86860.16
2023-04-09T07:32:32.467Z,87453.41
2023-04-09T07:33:41.906Z,91636.94
2023-04-09T07:34:44.988Z,92989.91
2023-04-09T07:35:47.888Z,93894.84
2023-04-09T07:36:51.048Z,92893.76
2023-04-09T07:37:54.027Z,93552.69
2023-04-09T07:38:57.304Z,96274.53
2023-04-09T07:40:00.298Z,95885.58
2023-04-09T07:41:03.262Z,95496.67
2023-04-09T07:42:06.497Z,93020.27
2023-04-09T07:43:15.012Z,92453.52
2023-04-09T07:44:17.718Z,92769.27
2023-04-09T07:45:20.502Z,93554.70
2023-04-09T07:46:23.316Z,96404.19
2023-04-09T07:47:26.092Z,94330.16
2023-04-09T07:48:29.017Z,93791.58
2023-04-09T07:49:31.859Z,95107.80
2023-04-09T07:50:34.770Z,94060.87
2023-04-09T07:51:37.540Z,95237.42
2023-04-09T07:52:40.319Z,94718.97
2023-04-09T07:53:43.181Z,95496.67
2023-04-09T07:54:46.163Z,96144.87
2023-04-09T07:55:48.939Z,96793.19
2023-04-09T07:56:51.718Z,99127.95
2023-04-09T07:57:54.586Z,98998.21
2023-04-09T07:59:00.840Z,99776.74
2023-04-09T08:00:03.620Z,100944.82
2023-04-09T08:01:06.480Z,103801.54
2023-04-09T08:02:09.327Z,104061.34
2023-04-09T08:03:12.718Z,103281.98
2023-04-09T08:04:16.016Z,104970.77
2023-04-09T08:05:18.863Z,103411.87
2023-04-09T08:06:21.573Z,106010.38
2023-04-09T08:07:24.358Z,107050.25
2023-04-09T08:08:29.355Z,106660.27
2023-04-09T08:09:32.061Z,105620.50
2023-04-09T08:10:35.125Z,107180.25
2023-04-09T08:11:38.100Z,105230.65
2023-04-09T08:12:42.302Z,105620.50
2023-04-09T08:13:45.176Z,106270.32
2023-04-09T08:14:50.720Z,107180.25
2023-04-09T08:15:53.695Z,107440.27
2023-04-09T08:16:56.785Z,108090.38
2023-04-09T08:17:59.925Z,109260.86
2023-04-09T08:19:02.731Z,109651.09
2023-04-09T08:20:05.398Z,109000.72
2023-04-09T08:21:08.375Z,108870.66
2023-04-09T08:22:11.452Z,108610.55
2023-04-09T08:23:14.546Z,108740.61
2023-04-09T08:24:17.443Z,109521.00
2023-04-09T08:25:20.278Z,107830.33
2023-04-09T08:26:23.058Z,109911.27
2023-04-09T08:27:26.440Z,110301.56
2023-04-09T08:28:29.217Z,111342.52
2023-04-09T08:29:32.227Z,111602.80
2023-04-09T08:30:36.291Z,113164.86
2023-04-09T08:31:39.449Z,112904.47
2023-04-09T08:32:42.202Z,113295.05
2023-04-09T08:33:44.913Z,112644.11
2023-04-09T08:34:48.000Z,112253.59
2023-04-09T08:35:50.774Z,112253.59
2023-04-09T08:36:53.980Z,112644.11
2023-04-09T08:37:56.823Z,112774.28
2023-04-09T08:39:01.810Z,113164.86
2023-04-09T08:40:04.787Z,112774.28
2023-04-09T08:41:09.519Z,112904.47
2023-04-09T08:42:12.122Z,113555.46
2023-04-09T08:43:15.188Z,113815.89
2023-04-09T08:44:17.964Z,115769.59
2023-04-09T08:45:20.731Z,115899.87
2023-04-09T08:46:23.666Z,116290.75
2023-04-09T08:47:26.647Z,116290.75
2023-04-09T08:48:29.851Z,116681.65
2023-04-09T08:49:33.868Z,116421.05
2023-04-09T08:50:36.550Z,116811.96
2023-04-09T08:51:39.460Z,116551.34
2023-04-09T08:52:42.186Z,116811.96
2023-04-09T08:53:44.964Z,116942.28
2023-04-09T08:54:47.766Z,116943.30
2023-04-09T08:55:50.616Z,116943.30
2023-04-09T08:56:53.697Z,116943.30
2023-04-09T08:57:56.572Z,116943.30
2023-04-09T08:58:59.362Z,116943.30
2023-04-09T09:00:02.115Z,116943.30
2023-04-09T09:01:04.899Z,116943.30
2023-04-09T09:02:08.032Z,116943.30
2023-04-09T09:03:11.196Z,116943.30
2023-04-09T09:04:15.815Z,116943.30
2023-04-09T09:05:18.865Z,116943.30
2023-04-09T09:06:22.119Z,116943.30
2023-04-09T09:07:24.898Z,116943.30
2023-04-09T09:08:27.677Z,116943.30
2023-04-09T09:09:30.433Z,116943.30
2023-04-09T09:10:33.629Z,116943.30
2023-04-09T09:11:36.590Z,116943.30
2023-04-09T09:12:39.600Z,116943.30
2023-04-09T09:13:42.338Z,116943.30
2023-04-09T09:14:44.946Z,116943.30
2023-04-09T09:15:48.198Z,116943.30
2023-04-09T09:16:51.221Z,116943.30
2023-04-09T09:17:54.022Z,116943.30
2023-04-09T09:18:57.374Z,116943.30
2023-04-09T09:20:01.022Z,116943.30
2023-04-09T09:21:03.693Z,116943.30
2023-04-09T09:22:06.673Z,116943.30
2023-04-09T09:23:09.454Z,116943.30
2023-04-09T09:24:12.416Z,116943.30
2023-04-09T09:25:15.816Z,116943.30
2023-04-09T09:26:18.688Z,116943.30
2023-04-09T09:27:21.455Z,116943.30
2023-04-09T09:28:24.632Z,116943.30
2023-04-09T09:29:27.401Z,116943.30
2023-04-09T09:30:30.482Z,116943.30
2023-04-09T09:31:33.390Z,116943.30
2023-04-09T09:32:41.697Z,116943.30
2023-04-09T09:33:44.640Z,116943.30
2023-04-09T09:34:47.617Z,116943.30
2023-04-09T09:35:50.496Z,116943.30
2023-04-09T09:36:53.291Z,116943.30
2023-04-09T09:37:57.974Z,116943.30
2023-04-09T09:39:00.652Z,116943.30
2023-04-09T09:40:03.432Z,116943.30
2023-04-09T09:41:06.606Z,116943.30
2023-04-09T09:42:09.789Z,116943.30
2023-04-09T09:43:14.195Z,116943.30
2023-04-09T09:44:17.481Z,116943.30
2023-04-09T09:45:20.257Z,116943.30
2023-04-09T09:46:23.082Z,116943.30
2023-04-09T09:47:26.044Z,116943.30
2023-04-09T09:48:34.427Z,116943.30
2023-04-09T09:49:37.390Z,116943.30
2023-04-09T09:50:40.063Z,116943.30
2023-04-09T09:51:43.344Z,116943.30
2023-04-09T09:52:46.636Z,116943.30
2023-04-09T09:53:49.902Z,116943.30
2023-04-09T09:54:52.688Z,116943.30
2023-04-09T09:55:55.349Z,116943.30
2023-04-09T09:56:58.344Z,116943.30
2023-04-09T09:58:01.006Z,116943.30
2023-04-09T09:59:03.921Z,116943.30
2023-04-09T10:00:06.752Z,116943.30
2023-04-09T10:01:09.463Z,116943.30
2023-04-09T10:02:13.033Z,116943.30
2023-04-09T10:03:16.119Z,116943.30
2023-04-09T10:04:18.872Z,116943.30
2023-04-09T10:05:21.530Z,116943.30
2023-04-09T10:06:24.502Z,116943.30
2023-04-09T10:07:28.821Z,116943.30
2023-04-09T10:08:31.686Z,116943.30
2023-04-09T10:09:34.764Z,116943.30
2023-04-09T10:10:37.543Z,116943.30
2023-04-09T10:13:49.631Z,116943.30
2023-04-09T10:15:55.564Z,116943.30
2023-04-09T10:16:58.418Z,116943.30
2023-04-09T10:18:02.075Z,116943.30
2023-04-09T10:19:05.067Z,116943.30
2023-04-09T10:20:08.054Z,116943.30
2023-04-09T10:21:11.005Z,116943.30
2023-04-09T10:22:13.882Z,116943.30
2023-04-09T10:23:17.160Z,116943.30
2023-04-09T10:24:20.040Z,116943.30
2023-04-09T10:25:23.016Z,116943.30
2023-04-09T10:26:25.984Z,116943.30
2023-04-09T10:27:28.653Z,116943.30
2023-04-09T10:28:31.947Z,116943.30
2023-04-09T10:29:34.632Z,116943.30
2023-04-09T10:30:37.513Z,116943.30
2023-04-09T10:31:40.255Z,116943.30
2023-04-09T10:32:43.188Z,116943.30
2023-04-09T10:33:46.312Z,116943.30
2023-04-09T10:34:49.598Z,116943.30
2023-04-09T10:35:52.384Z,116943.30
2023-04-09T10:36:55.263Z,116943.30
2023-04-09T10:37:57.808Z,116943.30
2023-04-09T10:39:01.101Z,116943.30
2023-04-09T10:40:03.774Z,116943.30
2023-04-09T10:41:06.329Z,116943.30
2023-04-09T10:42:09.002Z,116943.30
2023-04-09T10:43:11.673Z,116943.30
2023-04-09T10:44:14.748Z,116943.30
2023-04-09T10:45:17.521Z,116943.30
2023-04-09T10:46:20.317Z,116943.30
2023-04-09T10:47:23.318Z,116943.30
2023-04-09T10:48:25.959Z,116943.30
2023-04-09T10:49:29.224Z,116943.30
2023-04-09T10:50:31.997Z,116943.30
2023-04-09T10:51:34.971Z,116943.30
2023-04-09T10:52:37.855Z,116943.30
2023-04-09T10:53:40.934Z,116943.30
2023-04-09T10:54:44.415Z,116943.30
2023-04-09T10:55:47.100Z,116943.30
2023-04-09T10:56:49.964Z,116943.30
2023-04-09T10:57:53.041Z,116943.30
2023-04-09T10:58:55.828Z,116943.30
2023-04-09T10:59:58.700Z,116943.30
2023-04-09T11:01:01.472Z,116943.30
2023-04-09T11:02:04.506Z,116943.30
2023-04-09T11:03:07.607Z,116943.30
2023-04-09T11:04:13.169Z,116943.30
2023-04-09T11:06:27.708Z,116943.30
2023-04-09T11:07:30.485Z,116943.30
2023-04-09T11:08:33.644Z,116943.30
2023-04-09T11:09:36.557Z,116943.30
2023-04-09T11:10:39.632Z,116943.30
2023-04-09T11:11:42.609Z,116943.30
2023-04-09T11:12:45.680Z,116943.30
2023-04-09T11:13:48.450Z,116943.30
2023-04-09T11:14:51.124Z,116943.30
2023-04-09T11:15:54.127Z,116943.30
2023-04-09T11:16:57.086Z,116943.30
2023-04-09T11:18:00.183Z,116943.30
2023-04-09T11:19:02.818Z,116943.30
2023-04-09T11:20:05.495Z,116943.30
2023-04-09T11:21:08.375Z,116943.30
2023-04-09T11:22:11.368Z,116943.30
2023-04-09T11:23:15.510Z,116943.30
2023-04-09T11:24:18.330Z,116943.30
2023-04-09T11:25:21.089Z,116943.30
2023-04-09T11:26:24.075Z,116943.30
2023-04-09T11:27:28.318Z,116943.30
2023-04-09T11:28:31.259Z,116943.30
2023-04-09T11:29:33.922Z,116943.30
2023-04-09T11:30:36.810Z,116943.30
2023-04-09T11:31:39.735Z,116943.30
2023-04-09T11:32:42.473Z,116943.30
2023-04-09T11:33:45.217Z,116943.30
2023-04-09T11:34:47.994Z,116943.30
2023-04-09T11:35:50.781Z,116943.30
2023-04-09T11:36:54.656Z,116943.30
2023-04-09T11:37:57.334Z,116943.30
2023-04-09T11:39:00.215Z,116943.30
2023-04-09T11:40:04.900Z,116943.30
2023-04-09T11:41:07.697Z,116943.30
2023-04-09T11:42:12.315Z,116943.30
2023-04-09T11:43:14.980Z,116943.30
2023-04-09T11:44:17.753Z,116943.30
2023-04-09T11:45:20.761Z,116943.30
2023-04-09T11:46:23.825Z,116943.30
2023-04-09T11:47:26.890Z,116943.30
2023-04-09T11:48:29.452Z,116943.30
2023-04-09T11:49:32.545Z,116943.30
2023-04-09T11:50:35.412Z,116943.30
2023-04-09T11:51:38.400Z,116943.30
2023-04-09T11:52:41.255Z,116943.30
2023-04-09T11:53:43.930Z,116943.30
2023-04-09T11:54:49.358Z,116943.30
2023-04-09T11:55:52.259Z,116943.30
2023-04-09T11:57:00.401Z,116943.30
2023-04-09T11:58:03.524Z,116943.30
2023-04-09T11:59:06.295Z,116943.30
2023-04-09T12:00:09.066Z,116943.30
2023-04-09T12:01:11.938Z,116943.30
2023-04-09T12:02:15.073Z,116943.30
2023-04-09T12:03:20.166Z,116943.30
2023-04-09T12:04:23.107Z,116943.30
2023-04-09T12:05:26.005Z,116943.30
2023-04-09T12:06:29.073Z,116943.30
2023-04-09T12:07:31.954Z,116943.30
2023-04-09T12:08:35.048Z,116943.30
2023-04-09T12:09:37.904Z,116943.30
2023-04-09T12:10:42.294Z,116943.30
2023-04-09T12:11:45.191Z,116943.30
2023-04-09T12:12:47.966Z,116943.30
2023-04-09T12:13:50.838Z,116943.30
2023-04-09T12:14:53.368Z,116943.30
2023-04-09T12:15:57.427Z,116943.30
2023-04-09T12:17:00.690Z,116943.30
2023-04-09T12:18:04.911Z,116943.30